CMA-CGM Fort Saint Pierre — FQFM — position and weather

sailwx.info

Track history (hours):
 
Tides and Currents Weather Stations Pressure Air Temp Water Temp Dewpoint Dewpoint Depression Visibility Wind Speed Wind Dir Waves Ship Positions

CMA-CGM Fort Saint Pierre

Last reported at 2015-Jul-04 09:31 UTC. Time now 2015-Jul-04 10:07 UTC.
Position N 49°27' E 000°10'.

Length 197 m; beam 30 m.

Type: Ship (hazmat cat A). MMSI: 226328000.

Date/timePositionNaut miles runAvg speedWind from/ knotsBaromVisibWave heightAir tempDewpointWater temp
2015-Jul-04 09:31N 49°27' E 000°10'0 0.0
2015-Jul-04 08:31N 49°27' E 000°10'0 0.0
2015-Jul-04 07:31N 49°27' E 000°10'0 0.0
2015-Jul-04 06:31N 49°27' E 000°10'0 0.0
2015-Jul-04 05:31N 49°27' E 000°10'0 0.0
2015-Jul-04 04:31N 49°27' E 000°10'0 0.0
2015-Jul-04 03:31N 49°27' E 000°10'0 0.0
2015-Jul-04 02:31N 49°27' E 000°10'0 0.0
2015-Jul-04 01:31N 49°27' E 000°10'0 0.0
2015-Jul-04 00:31N 49°27' E 000°10'0 0.0
2015-Jul-03 23:31N 49°27' E 000°10'0 0.0
2015-Jul-03 22:31N 49°27' E 000°10'0 0.0
2015-Jul-03 21:31N 49°27' E 000°10'0 0.0
2015-Jul-03 20:31N 49°27' E 000°10'0 0.0
2015-Jul-03 19:31N 49°27' E 000°10'0 0.0
2015-Jul-03 18:31N 49°27' E 000°10'0 0.0
2015-Jul-03 17:31N 49°27' E 000°10'0 0.0
2015-Jul-03 16:31N 49°27' E 000°10'0 0.0
2015-Jul-03 15:31N 49°27' E 000°10'0 0.0
2015-Jul-03 14:31N 49°27' E 000°10'0 0.0
2015-Jul-03 13:31N 49°27' E 000°10'0 0.0
2015-Jul-03 12:31N 49°27' E 000°10'0 0.0
2015-Jul-03 11:31N 49°27' E 000°10'2 1.7
2015-Jul-03 10:33N 49°28' E 000°07'9 8.9
2015-Jul-03 09:33N 49°30' W 000°06'1 1.0
2015-Jul-03 08:31N 49°30' W 000°04'0 0.1
2015-Jul-03 07:28N 49°30' W 000°04'0 0.1
2015-Jul-03 06:31N 49°29' W 000°05'0 0.1
2015-Jul-03 05:28N 49°30' W 000°05'0 0.0
2015-Jul-03 04:31N 49°30' W 000°05'0 0.0
2015-Jul-03 03:31N 49°30' W 000°05'0 0.0
2015-Jul-03 02:31N 49°30' W 000°05'0 0.0
2015-Jul-03 01:31N 49°30' W 000°05'0 0.1
2015-Jul-03 00:31N 49°29' W 000°04'0 0.1
2015-Jul-02 23:31N 49°30' W 000°04'0 0.0
2015-Jul-02 22:31N 49°30' W 000°04'0 0.0
2015-Jul-02 21:31N 49°30' W 000°04'0 0.0
2015-Jul-02 20:31N 49°30' W 000°04'0 0.1
2015-Jul-02 19:31N 49°30' W 000°04'0 0.1
2015-Jul-02 18:31N 49°29' W 000°04'0 0.1
2015-Jul-02 17:31N 49°29' W 000°05'0 0.1
2015-Jul-02 16:31N 49°30' W 000°05'0 0.0
2015-Jul-02 15:31N 49°30' W 000°05'0 0.0
2015-Jul-02 14:31N 49°30' W 000°05'0 0.0
2015-Jul-02 13:31N 49°30' W 000°05'0 0.1
2015-Jul-02 12:31N 49°30' W 000°04'0 0.1
2015-Jul-02 11:31N 49°30' W 000°04'5 5.6
2015-Jul-02 10:33N 49°27' E 000°03'1010.1
2015-Jul-02 09:33N 49°26' E 000°18'8 8.3
2015-Jul-02 08:34N 49°29' E 000°30'6 6.2
2015-Jul-02 07:33N 49°27' E 000°39'6 5.6
2015-Jul-02 06:33N 49°29' E 000°47'3 2.8
2015-Jul-02 05:23N 49°28' E 000°52'8 2.5
2015-Jul-02 02:09N 49°21' E 000°59'0 0.0
2015-Jul-02 01:33N 49°21' E 000°59'7 0.5
2015-Jul-01 11:32N 49°28' E 000°56'5 4.7
2015-Jul-01 10:24N 49°26' E 000°48'6 6.6
2015-Jul-01 09:25N 49°30' E 000°40'6 6.9
2015-Jul-01 08:33N 49°29' E 000°31'1212.4
2015-Jul-01 07:33N 49°26' E 000°13'1212.4
2015-Jul-01 06:34N 49°29' W 000°06'1211.9
2015-Jul-01 05:34N 49°41' W 000°11'3819.2
2015-Jul-01 03:34N 50°19' W 000°13'1817.6
2015-Jul-01 02:33N 50°30' E 000°09'2020.2
2015-Jul-01 01:33N 50°36' E 000°39'2120.7
2015-Jul-01 00:33N 50°47' E 001°07'1919.3
2015-Jun-30 23:33N 51°01' E 001°28'1514.6
2015-Jun-30 22:33N 51°03' E 001°51'1312.8
2015-Jun-30 21:33N 51°01' E 002°11'0 0.1
2015-Jun-30 20:31N 51°01' E 002°11'0 0.0
2015-Jun-30 19:28N 51°01' E 002°11'0 0.0
2015-Jun-30 18:31N 51°01' E 002°11'0 0.0
2015-Jun-30 17:31N 51°01' E 002°11'0 0.0
2015-Jun-30 16:31N 51°01' E 002°11'0 0.0
2015-Jun-30 09:31N 51°01' E 002°11'0 0.0
2015-Jun-30 08:07N 51°01' E 002°11'0 0.0
2015-Jun-30 07:22N 51°01' E 002°11'0 0.0
2015-Jun-30 06:31N 51°01' E 002°11'0 0.0
2015-Jun-30 05:31N 51°01' E 002°11'0 0.0
2015-Jun-30 04:31N 51°01' E 002°11'0 0.0
2015-Jun-30 03:31N 51°01' E 002°11'0 0.0
2015-Jun-30 02:31N 51°01' E 002°11'0 0.0
2015-Jun-30 01:31N 51°01' E 002°11'0 0.0
2015-Jun-30 00:28N 51°01' E 002°11'0 0.0
2015-Jun-29 23:31N 51°01' E 002°11'0 0.0
2015-Jun-29 22:31N 51°01' E 002°11'0 0.0
2015-Jun-29 21:31N 51°01' E 002°11'0 0.0
2015-Jun-29 20:31N 51°01' E 002°11'0 0.0
2015-Jun-29 19:31N 51°01' E 002°11'0 0.0
2015-Jun-29 18:28N 51°01' E 002°11'0 0.0
2015-Jun-29 17:31N 51°01' E 002°11'0 0.0
2015-Jun-29 16:31N 51°01' E 002°11'0 0.0
2015-Jun-29 15:31N 51°01' E 002°11'0 0.0
2015-Jun-29 14:31N 51°01' E 002°11'0 0.0
2015-Jun-29 13:28N 51°01' E 002°11'0 0.0
2015-Jun-29 12:22N 51°01' E 002°11'0 0.0
2015-Jun-29 11:28N 51°01' E 002°11'0 0.0
2015-Jun-29 10:31N 51°01' E 002°11'0 0.0
2015-Jun-29 06:31N 51°01' E 002°11'1 0.2
2015-Jun-29 02:33N 51°01' E 002°10'1111.5
2015-Jun-29 01:33N 51°02' E 001°52'10 9.5
2015-Jun-29 00:33N 50°59' E 001°38'7314.6
2015-Jun-28 19:32N 50°17' E 000°03'1515.2
2015-Jun-28 18:33N 50°13' W 000°20'1515.1
2015-Jun-28 17:33N 50°10' W 000°42'1515.3
2015-Jun-28 16:33N 50°06' W 001°06'1818.2
2015-Jun-28 15:33N 50°01' W 001°33'2019.9
2015-Jun-28 14:32N 49°58' W 002°05'6118.5
2015-Jun-28 11:13N 49°40' W 003°35'1718.4
2015-Jun-28 10:16N 49°36' W 004°01'3118.3
2015-Jun-28 08:33N 49°27' W 004°48'1717.0
2015-Jun-28 07:34N 49°22' W 005°13'1817.6
2015-Jun-28 06:33N 49°17' W 005°38'  
2015-Jun-25 21:14N 41°29' W 029°10'1719.3
2015-Jun-25 20:20N 41°20' W 029°29'3819.5
2015-Jun-25 18:23N 40°59' W 030°12'1919.6
2015-Jun-25 17:25N 40°49' W 030°33'7419.2
2015-Jun-25 13:33N 40°06' W 031°53'  
Track history (hours):
 
Tides and Currents Weather Stations Pressure Air Temp Water Temp Dewpoint Dewpoint Depression Visibility Wind Speed Wind Dir Waves Ship Positions

CMA-CGM Fort Saint Pierre

Last reported at 2015-Jul-04 09:31 UTC. Time now 2015-Jul-04 10:07 UTC.
Position N 49°27' E 000°10'.

Length 197 m; beam 30 m.

Type: Ship (hazmat cat A). MMSI: 226328000.

Date/timePositionNaut miles runAvg speedWind from/ knotsBaromVisibWave heightAir tempDewpointWater temp
2015-Jul-04 09:31N 49°27' E 000°10'0 0.0
2015-Jul-04 08:31N 49°27' E 000°10'0 0.0
2015-Jul-04 07:31N 49°27' E 000°10'0 0.0
2015-Jul-04 06:31N 49°27' E 000°10'0 0.0
2015-Jul-04 05:31N 49°27' E 000°10'0 0.0
2015-Jul-04 04:31N 49°27' E 000°10'0 0.0
2015-Jul-04 03:31N 49°27' E 000°10'0 0.0
2015-Jul-04 02:31N 49°27' E 000°10'0 0.0
2015-Jul-04 01:31N 49°27' E 000°10'0 0.0
2015-Jul-04 00:31N 49°27' E 000°10'0 0.0
2015-Jul-03 23:31N 49°27' E 000°10'0 0.0
2015-Jul-03 22:31N 49°27' E 000°10'0 0.0
2015-Jul-03 21:31N 49°27' E 000°10'0 0.0
2015-Jul-03 20:31N 49°27' E 000°10'0 0.0
2015-Jul-03 19:31N 49°27' E 000°10'0 0.0
2015-Jul-03 18:31N 49°27' E 000°10'0 0.0
2015-Jul-03 17:31N 49°27' E 000°10'0 0.0
2015-Jul-03 16:31N 49°27' E 000°10'0 0.0
2015-Jul-03 15:31N 49°27' E 000°10'0 0.0
2015-Jul-03 14:31N 49°27' E 000°10'0 0.0
2015-Jul-03 13:31N 49°27' E 000°10'0 0.0
2015-Jul-03 12:31N 49°27' E 000°10'0 0.0
2015-Jul-03 11:31N 49°27' E 000°10'2 1.7
2015-Jul-03 10:33N 49°28' E 000°07'9 8.9
2015-Jul-03 09:33N 49°30' W 000°06'1 1.0
2015-Jul-03 08:31N 49°30' W 000°04'0 0.1
2015-Jul-03 07:28N 49°30' W 000°04'0 0.1
2015-Jul-03 06:31N 49°29' W 000°05'0 0.1
2015-Jul-03 05:28N 49°30' W 000°05'0 0.0
2015-Jul-03 04:31N 49°30' W 000°05'0 0.0
2015-Jul-03 03:31N 49°30' W 000°05'0 0.0
2015-Jul-03 02:31N 49°30' W 000°05'0 0.0
2015-Jul-03 01:31N 49°30' W 000°05'0 0.1
2015-Jul-03 00:31N 49°29' W 000°04'0 0.1
2015-Jul-02 23:31N 49°30' W 000°04'0 0.0
2015-Jul-02 22:31N 49°30' W 000°04'0 0.0
2015-Jul-02 21:31N 49°30' W 000°04'0 0.0
2015-Jul-02 20:31N 49°30' W 000°04'0 0.1
2015-Jul-02 19:31N 49°30' W 000°04'0 0.1
2015-Jul-02 18:31N 49°29' W 000°04'0 0.1
2015-Jul-02 17:31N 49°29' W 000°05'0 0.1
2015-Jul-02 16:31N 49°30' W 000°05'0 0.0
2015-Jul-02 15:31N 49°30' W 000°05'0 0.0
2015-Jul-02 14:31N 49°30' W 000°05'0 0.0
2015-Jul-02 13:31N 49°30' W 000°05'0 0.1
2015-Jul-02 12:31N 49°30' W 000°04'0 0.1
2015-Jul-02 11:31N 49°30' W 000°04'5 5.6
2015-Jul-02 10:33N 49°27' E 000°03'1010.1
2015-Jul-02 09:33N 49°26' E 000°18'8 8.3
2015-Jul-02 08:34N 49°29' E 000°30'6 6.2
2015-Jul-02 07:33N 49°27' E 000°39'6 5.6
2015-Jul-02 06:33N 49°29' E 000°47'3 2.8
2015-Jul-02 05:23N 49°28' E 000°52'8 2.5
2015-Jul-02 02:09N 49°21' E 000°59'0 0.0
2015-Jul-02 01:33N 49°21' E 000°59'7 0.5
2015-Jul-01 11:32N 49°28' E 000°56'5 4.7
2015-Jul-01 10:24N 49°26' E 000°48'6 6.6
2015-Jul-01 09:25N 49°30' E 000°40'6 6.9
2015-Jul-01 08:33N 49°29' E 000°31'1212.4
2015-Jul-01 07:33N 49°26' E 000°13'1212.4
2015-Jul-01 06:34N 49°29' W 000°06'1211.9
2015-Jul-01 05:34N 49°41' W 000°11'3819.2
2015-Jul-01 03:34N 50°19' W 000°13'1817.6
2015-Jul-01 02:33N 50°30' E 000°09'2020.2
2015-Jul-01 01:33N 50°36' E 000°39'2120.7
2015-Jul-01 00:33N 50°47' E 001°07'1919.3
2015-Jun-30 23:33N 51°01' E 001°28'1514.6
2015-Jun-30 22:33N 51°03' E 001°51'1312.8
2015-Jun-30 21:33N 51°01' E 002°11'0 0.1
2015-Jun-30 20:31N 51°01' E 002°11'0 0.0
2015-Jun-30 19:28N 51°01' E 002°11'0 0.0
2015-Jun-30 18:31N 51°01' E 002°11'0 0.0
2015-Jun-30 17:31N 51°01' E 002°11'0 0.0
2015-Jun-30 16:31N 51°01' E 002°11'0 0.0
2015-Jun-30 09:31N 51°01' E 002°11'0 0.0
2015-Jun-30 08:07N 51°01' E 002°11'0 0.0
2015-Jun-30 07:22N 51°01' E 002°11'0 0.0
2015-Jun-30 06:31N 51°01' E 002°11'0 0.0
2015-Jun-30 05:31N 51°01' E 002°11'0 0.0
2015-Jun-30 04:31N 51°01' E 002°11'0 0.0
2015-Jun-30 03:31N 51°01' E 002°11'0 0.0
2015-Jun-30 02:31N 51°01' E 002°11'0 0.0
2015-Jun-30 01:31N 51°01' E 002°11'0 0.0
2015-Jun-30 00:28N 51°01' E 002°11'0 0.0
2015-Jun-29 23:31N 51°01' E 002°11'0 0.0
2015-Jun-29 22:31N 51°01' E 002°11'0 0.0
2015-Jun-29 21:31N 51°01' E 002°11'0 0.0
2015-Jun-29 20:31N 51°01' E 002°11'0 0.0
2015-Jun-29 19:31N 51°01' E 002°11'0 0.0
2015-Jun-29 18:28N 51°01' E 002°11'0 0.0
2015-Jun-29 17:31N 51°01' E 002°11'0 0.0
2015-Jun-29 16:31N 51°01' E 002°11'0 0.0
2015-Jun-29 15:31N 51°01' E 002°11'0 0.0
2015-Jun-29 14:31N 51°01' E 002°11'0 0.0
2015-Jun-29 13:28N 51°01' E 002°11'0 0.0
2015-Jun-29 12:22N 51°01' E 002°11'0 0.0
2015-Jun-29 11:28N 51°01' E 002°11'0 0.0
2015-Jun-29 10:31N 51°01' E 002°11'0 0.0
2015-Jun-29 06:31N 51°01' E 002°11'1 0.2
2015-Jun-29 02:33N 51°01' E 002°10'1111.5
2015-Jun-29 01:33N 51°02' E 001°52'10 9.5
2015-Jun-29 00:33N 50°59' E 001°38'7314.6
2015-Jun-28 19:32N 50°17' E 000°03'1515.2
2015-Jun-28 18:33N 50°13' W 000°20'1515.1
2015-Jun-28 17:33N 50°10' W 000°42'1515.3
2015-Jun-28 16:33N 50°06' W 001°06'1818.2
2015-Jun-28 15:33N 50°01' W 001°33'2019.9
2015-Jun-28 14:32N 49°58' W 002°05'6118.5
2015-Jun-28 11:13N 49°40' W 003°35'1718.4
2015-Jun-28 10:16N 49°36' W 004°01'3118.3
2015-Jun-28 08:33N 49°27' W 004°48'1717.0
2015-Jun-28 07:34N 49°22' W 005°13'1817.6
2015-Jun-28 06:33N 49°17' W 005°38'  
2015-Jun-25 21:14N 41°29' W 029°10'1719.3
2015-Jun-25 20:20N 41°20' W 029°29'3819.5
2015-Jun-25 18:23N 40°59' W 030°12'1919.6
2015-Jun-25 17:25N 40°49' W 030°33'7419.2
2015-Jun-25 13:33N 40°06' W 031°53'  

Dump ship's entire track history